Time;durP1;ratioP1;P1;durP2;ratioP2;P2;SDS_P1;SDS_P2;PMS_P1;PMS_P2;Temp;Humidity;BMP_temperature;BMP_pressure;BME280_temperature;BME280_humidity;BME280_pressure;Samples;Min_cycle;Max_cycle;Signal;HPM_P1;HPM_P2
2023/01/14 00:00:52;;;;;;;3.03;1.60;;;;;;;5.00;100.00;98575.00;5073318;28;20303;-77
2023/01/14 00:03:18;;;;;;;5.67;2.20;;;;;;;4.98;100.00;98573.34;5073863;28;20218;-77
2023/01/14 00:05:54;;;;;;;3.17;2.03;;;;;;;4.76;100.00;98565.50;5073526;28;20233;-77
2023/01/14 00:08:21;;;;;;;6.33;2.53;;;;;;;4.58;100.00;98562.75;5073877;28;20206;-77
2023/01/14 00:10:47;;;;;;;5.23;1.80;;;;;;;4.47;100.00;98563.13;5073233;28;20216;-77
2023/01/14 00:13:14;;;;;;;5.37;2.63;;;;;;;4.35;100.00;98574.06;5073554;28;20685;-77
2023/01/14 00:15:49;;;;;;;6.27;2.23;;;;;;;4.23;100.00;98568.47;5073448;28;20320;-77
2023/01/14 00:18:17;;;;;;;5.47;1.83;;;;;;;4.20;100.00;98577.28;5073466;28;20234;-77
2023/01/14 00:20:44;;;;;;;9.57;2.30;;;;;;;4.19;100.00;98578.19;5072221;28;20212;-78
2023/01/14 00:23:10;;;;;;;5.77;2.27;;;;;;;4.15;100.00;98578.38;5073517;28;20210;-77
2023/01/14 00:25:38;;;;;;;8.13;2.37;;;;;;;4.13;100.00;98583.63;5073617;28;20234;-77
2023/01/14 00:28:05;;;;;;;4.50;2.23;;;;;;;4.14;100.00;98589.72;5073538;28;20213;-77
2023/01/14 00:30:32;;;;;;;6.80;2.10;;;;;;;4.05;100.00;98577.84;5072525;28;20352;-77
2023/01/14 00:32:58;;;;;;;6.23;1.97;;;;;;;3.97;100.00;98579.88;5073500;28;20207;-77
2023/01/14 00:35:26;;;;;;;7.30;2.20;;;;;;;3.94;100.00;98576.50;5073344;28;20231;-77
2023/01/14 00:37:53;;;;;;;7.10;2.20;;;;;;;3.93;100.00;98580.91;5073198;28;20229;-77
2023/01/14 00:40:19;;;;;;;3.60;1.90;;;;;;;3.92;100.00;98573.09;5072551;28;20215;-78
2023/01/14 00:42:45;;;;;;;4.70;2.03;;;;;;;3.86;100.00;98568.09;5073205;28;20224;-78
2023/01/14 00:45:12;;;;;;;7.00;2.13;;;;;;;3.90;100.00;98567.06;5072865;28;20229;-77
2023/01/14 00:47:38;;;;;;;7.17;2.07;;;;;;;3.89;100.00;98573.19;5072884;28;20213;-78
2023/01/14 00:50:06;;;;;;;6.23;2.30;;;;;;;3.84;100.00;98572.53;5072110;28;20218;-77
2023/01/14 00:52:34;;;;;;;5.83;2.10;;;;;;;3.81;100.00;98570.88;5073037;28;20212;-77
2023/01/14 00:55:00;;;;;;;6.37;2.30;;;;;;;3.81;100.00;98573.50;5072739;28;20244;-77
2023/01/14 00:57:27;;;;;;;3.53;2.40;;;;;;;3.79;100.00;98572.69;5072768;28;20229;-77
2023/01/14 00:59:53;;;;;;;6.57;2.10;;;;;;;3.84;100.00;98575.16;5072004;28;20213;-77
2023/01/14 01:02:20;;;;;;;6.07;2.10;;;;;;;3.81;100.00;98570.88;5072608;28;20210;-77
2023/01/14 01:04:46;;;;;;;5.60;2.23;;;;;;;3.88;100.00;98577.59;5072514;28;20232;-77
2023/01/14 01:07:13;;;;;;;7.73;2.40;;;;;;;3.92;100.00;98579.16;5072882;28;20205;-77
2023/01/14 01:09:40;;;;;;;6.57;2.40;;;;;;;3.93;100.00;98580.03;5071897;28;20229;-77
2023/01/14 01:12:07;;;;;;;8.53;2.43;;;;;;;3.88;100.00;98581.97;5072580;28;20220;-77
2023/01/14 01:14:33;;;;;;;6.20;2.10;;;;;;;3.86;100.00;98578.56;5072292;28;20236;-77
2023/01/14 01:17:00;;;;;;;5.60;2.20;;;;;;;3.81;100.00;98586.56;5072543;28;20241;-77
2023/01/14 01:19:26;;;;;;;6.30;2.27;;;;;;;3.78;100.00;98589.28;5071728;28;20216;-77
2023/01/14 01:21:53;;;;;;;5.90;2.10;;;;;;;3.73;100.00;98591.19;5072394;28;20702;-77
2023/01/14 01:24:19;;;;;;;6.80;1.90;;;;;;;3.72;100.00;98597.31;5072138;28;20325;-77
2023/01/14 01:26:48;;;;;;;4.20;1.87;;;;;;;3.74;100.00;98598.13;5072361;28;20212;-78
2023/01/14 01:29:15;;;;;;;7.07;1.73;;;;;;;3.75;100.00;98594.63;5071268;28;20729;-77
2023/01/14 01:31:41;;;;;;;7.47;2.10;;;;;;;3.77;100.00;98600.66;5071961;28;20679;-77
2023/01/14 01:34:08;;;;;;;3.07;2.10;;;;;;;3.77;100.00;98605.88;5072021;28;20249;-77
2023/01/14 01:36:35;;;;;;;6.60;1.97;;;;;;;3.78;100.00;98611.97;5072140;28;20255;-77
2023/01/14 01:39:01;;;;;;;4.93;1.77;;;;;;;3.79;100.00;98609.28;5071264;28;20241;-77
2023/01/14 01:41:30;;;;;;;6.17;2.20;;;;;;;3.78;100.00;98612.81;5071974;28;20211;-77
2023/01/14 01:44:01;;;;;;;8.50;2.50;;;;;;;3.78;100.00;98612.81;5071703;28;20224;-77
2023/01/14 01:46:28;;;;;;;4.10;1.97;;;;;;;3.84;100.00;98622.22;5072000;28;20221;-77
2023/01/14 01:48:57;;;;;;;6.67;3.37;;;;;;;3.78;100.00;98618.03;5071189;28;20211;-77
2023/01/14 01:51:29;;;;;;;8.00;2.13;;;;;;;3.67;100.00;98625.38;5071741;28;20655;-77
2023/01/14 01:53:59;;;;;;;4.67;2.20;;;;;;;3.67;100.00;98628.00;5071678;28;20230;-77
2023/01/14 01:56:29;;;;;;;4.47;1.80;;;;;;;3.65;100.00;98621.97;5071637;28;20577;-77
2023/01/14 01:58:57;;;;;;;6.33;2.20;;;;;;;3.64;100.00;98620.28;5070321;28;20239;-77
2023/01/14 02:01:26;;;;;;;6.70;2.23;;;;;;;3.68;100.00;98629.69;5071718;28;20213;-77
2023/01/14 02:03:53;;;;;;;5.63;2.20;;;;;;;3.69;100.00;98627.94;5071848;28;20212;-77
2023/01/14 02:06:19;;;;;;;4.00;1.53;;;;;;;3.74;100.00;98626.88;5071435;28;20209;-77
2023/01/14 02:08:49;;;;;;;4.33;1.80;;;;;;;3.70;100.00;98624.44;5070969;28;20217;-77
2023/01/14 02:11:30;;;;;;;5.60;2.20;;;;;;;3.61;100.00;98620.38;5071845;28;20589;-77
2023/01/14 02:14:06;;;;;;;4.37;2.40;;;;;;;3.55;100.00;98615.34;5071438;28;20232;-77
2023/01/14 02:16:45;;;;;;;4.77;2.17;;;;;;;3.50;100.00;98612.06;5071484;28;20206;-77
2023/01/14 02:19:17;;;;;;;6.23;2.47;;;;;;;3.52;100.00;98614.59;5070421;28;20234;-77
2023/01/14 02:21:48;;;;;;;3.93;1.83;;;;;;;3.46;100.00;98610.44;5071620;28;20214;-77
2023/01/14 02:24:52;;;;;;;4.47;2.00;;;;;;;3.40;100.00;98610.63;5071331;28;20239;-77
2023/01/14 02:27:48;;;;;;;5.20;2.07;;;;;;;3.31;100.00;98617.94;5071403;28;20215;-77
2023/01/14 02:30:28;;;;;;;5.87;1.90;;;;;;;3.26;100.00;98605.03;5072209;28;20212;-77
2023/01/14 02:33:04;;;;;;;5.00;1.70;;;;;;;3.21;100.00;98604.31;5071359;28;20584;-77
2023/01/14 02:35:39;;;;;;;3.57;1.50;;;;;;;3.14;100.00;98597.59;5074909;28;20236;-77
2023/01/14 02:38:18;;;;;;;3.70;1.70;;;;;;;3.14;100.00;98587.16;5080802;28;20212;-77
2023/01/14 02:40:50;;;;;;;4.63;2.00;;;;;;;3.23;100.00;98597.28;5074271;28;20218;-76
2023/01/14 02:46:21;;;;;;;4.87;1.70;;;;;;;3.13;100.00;98593.25;5061310;28;20196;-77
2023/01/14 02:48:49;;;;;;;8.53;1.97;;;;;;;3.09;100.00;98596.88;5097800;28;20208;-77
2023/01/14 02:51:16;;;;;;;10.07;2.20;;;;;;;3.13;100.00;98600.25;5097855;28;20215;-77
2023/01/14 02:53:43;;;;;;;5.00;1.70;;;;;;;3.13;100.00;98601.06;5096281;28;20218;-77
2023/01/14 02:56:11;;;;;;;4.97;1.93;;;;;;;3.26;100.00;98606.78;5095602;28;20208;-77
2023/01/14 02:59:11;;;;;;;4.83;2.10;;;;;;;3.40;100.00;98600.19;5096045;28;20230;-76
2023/01/14 03:01:57;;;;;;;3.17;1.37;;;;;;;3.58;100.00;98599.56;5099213;28;20199;-78
2023/01/14 03:04:40;;;;;;;5.70;1.70;;;;;;;3.72;100.00;98602.56;5098729;28;20233;-76
2023/01/14 03:07:14;;;;;;;4.10;1.40;;;;;;;3.79;100.00;98604.03;5095725;28;20220;-77
2023/01/14 03:09:54;;;;;;;5.40;1.80;;;;;;;3.93;100.00;98596.59;5095013;28;20207;-77
2023/01/14 03:12:31;;;;;;;3.57;1.73;;;;;;;4.01;100.00;98594.53;5101691;28;20212;-77
2023/01/14 03:15:05;;;;;;;4.43;1.50;;;;;;;4.04;100.00;98588.34;5101541;28;20231;-78
2023/01/14 03:17:38;;;;;;;4.13;1.90;;;;;;;3.97;100.00;98579.88;5101393;28;20211;-76
2023/01/14 03:20:10;;;;;;;3.53;1.97;;;;;;;4.07;100.00;98583.00;5093900;28;20213;-77
2023/01/14 03:22:38;;;;;;;4.63;1.80;;;;;;;4.16;100.00;98587.91;5077627;28;20219;-77
2023/01/14 03:25:07;;;;;;;5.60;1.80;;;;;;;4.16;100.00;98596.59;5077411;28;20243;-77
2023/01/14 03:27:37;;;;;;;3.57;1.40;;;;;;;4.17;100.00;98573.91;5077301;28;20205;-77
2023/01/14 03:30:09;;;;;;;6.10;1.90;;;;;;;4.15;100.00;98570.50;5076666;28;20213;-77
2023/01/14 03:32:41;;;;;;;6.77;1.60;;;;;;;4.15;100.00;98576.59;5077369;28;20211;-77
2023/01/14 03:35:11;;;;;;;5.20;1.70;;;;;;;4.21;100.00;98575.53;5077508;28;20259;-77
2023/01/14 03:37:39;;;;;;;5.23;1.50;;;;;;;4.19;100.00;98566.84;5077256;28;20208;-77
2023/01/14 03:40:10;;;;;;;3.70;1.63;;;;;;;4.21;100.00;98571.13;5076599;28;20218;-77
2023/01/14 03:42:41;;;;;;;2.87;1.47;;;;;;;4.31;100.00;98569.88;5077317;28;20219;-77
2023/01/14 03:45:14;;;;;;;6.93;1.77;;;;;;;4.40;100.00;98561.69;5077366;28;20325;-77
2023/01/14 03:47:43;;;;;;;4.07;1.47;;;;;;;4.50;100.00;98557.81;5077307;28;20724;-77
2023/01/14 03:50:13;;;;;;;3.40;1.57;;;;;;;4.54;100.00;98564.63;5076552;28;20226;-77
2023/01/14 03:52:53;;;;;;;3.23;1.47;;;;;;;4.59;100.00;98570.53;5077021;28;20203;-77
2023/01/14 03:55:26;;;;;;;4.33;1.67;;;;;;;4.58;100.00;98562.75;5074888;28;20241;-77
2023/01/14 03:57:57;;;;;;;3.07;1.03;;;;;;;4.53;100.00;98552.44;5074150;28;20252;-77
2023/01/14 04:00:29;;;;;;;4.57;1.53;;;;;;;4.45;100.00;98546.66;5073365;28;20211;-77
2023/01/14 04:02:59;;;;;;;3.43;1.33;;;;;;;4.35;100.00;98547.91;5074086;28;20234;-77
2023/01/14 04:05:26;;;;;;;7.03;1.40;;;;;;;4.31;100.00;98545.47;5073776;28;20617;-77
2023/01/14 04:07:54;;;;;;;4.70;1.60;;;;;;;4.32;100.00;98540.19;5074123;28;20205;-77
2023/01/14 04:10:20;;;;;;;3.43;1.27;;;;;;;4.32;100.00;98529.72;5073215;28;20213;-77
2023/01/14 04:15:36;;;;;;;7.17;1.50;;;;;;;4.37;100.00;98519.94;4998577;28;20269;-77
2023/01/14 04:18:04;;;;;;;3.33;1.37;;;;;;;4.35;100.00;98505.22;5073974;28;20230;-77
2023/01/14 04:20:32;;;;;;;4.33;1.10;;;;;;;4.29;100.00;98505.44;5073035;28;20211;-77
2023/01/14 04:22:58;;;;;;;4.33;1.13;;;;;;;4.21;100.00;98504.88;5073493;28;20737;-77
2023/01/14 04:25:25;;;;;;;4.40;1.30;;;;;;;4.11;100.00;98506.13;5088889;22;20263;-82
2023/01/14 04:27:51;;;;;;;5.07;1.33;;;;;;;4.02;100.00;98507.34;5073348;28;20215;-82
2023/01/14 04:30:18;;;;;;;6.67;1.40;;;;;;;4.02;100.00;98512.56;5072333;28;20690;-82
2023/01/14 04:32:44;;;;;;;4.03;1.30;;;;;;;4.12;100.00;98508.69;5073221;28;20209;-82
2023/01/14 04:35:12;;;;;;;5.53;1.60;;;;;;;4.20;100.00;98498.78;5073285;28;20233;-82
2023/01/14 04:37:38;;;;;;;4.07;1.27;;;;;;;4.25;100.00;98504.72;5073465;28;20212;-83
2023/01/14 04:40:06;;;;;;;3.90;1.20;;;;;;;4.35;100.00;98500.81;5072438;28;20239;-82
2023/01/14 04:42:31;;;;;;;4.47;1.30;;;;;;;4.43;100.00;98488.31;5073119;28;20284;-82
2023/01/14 04:45:00;;;;;;;4.73;1.90;;;;;;;4.45;100.00;98486.47;5072959;28;20233;-82
2023/01/14 04:47:28;;;;;;;5.77;1.50;;;;;;;4.56;100.00;98489.50;5073370;28;20553;-83
2023/01/14 04:49:55;;;;;;;1.43;1.20;;;;;;;4.61;100.00;98487.56;5072885;28;20209;-82
2023/01/14 04:52:23;;;;;;;2.57;1.03;;;;;;;4.66;100.00;98490.88;5073350;28;20248;-82
2023/01/14 04:54:50;;;;;;;4.30;1.40;;;;;;;4.76;100.00;98492.19;5073205;28;20238;-83
2023/01/14 04:57:16;;;;;;;3.90;1.17;;;;;;;4.78;100.00;98497.34;5073172;28;20546;-83
2023/01/14 04:59:43;;;;;;;6.80;1.20;;;;;;;4.78;100.00;98490.38;5072090;28;20242;-83
2023/01/14 05:02:09;;;;;;;2.40;1.30;;;;;;;4.82;100.00;98485.88;5073032;28;20208;-82
2023/01/14 05:04:36;;;;;;;3.23;1.17;;;;;;;4.82;100.00;98497.16;5073010;28;20263;-83
2023/01/14 05:07:03;;;;;;;4.47;1.53;;;;;;;4.83;100.00;98487.56;5072794;28;20208;-83
2023/01/14 05:09:31;;;;;;;3.67;1.30;;;;;;;4.87;100.00;98492.59;5072523;28;20214;-83
2023/01/14 05:11:57;;;;;;;5.47;1.60;;;;;;;4.93;100.00;98489.72;5072716;28;20206;-82
2023/01/14 05:14:24;;;;;;;3.57;1.53;;;;;;;4.95;100.00;98485.28;5072937;28;20229;-83
2023/01/14 05:16:50;;;;;;;2.80;1.20;;;;;;;5.01;100.00;98482.41;5072484;28;20209;-83
2023/01/14 05:19:17;;;;;;;2.57;1.10;;;;;;;5.05;100.00;98477.88;5072070;28;20240;-82
2023/01/14 05:21:43;;;;;;;4.03;1.20;;;;;;;5.04;100.00;98471.81;5072515;28;20211;-82
2023/01/14 05:24:10;;;;;;;2.63;1.10;;;;;;;5.04;100.00;98466.56;5072387;28;20214;-83
2023/01/14 05:26:38;;;;;;;4.83;1.30;;;;;;;5.05;100.00;98468.28;5072417;28;20210;-82
2023/01/14 05:29:04;;;;;;;4.07;1.10;;;;;;;5.07;100.00;98463.81;5071744;28;20209;-83
2023/01/14 05:31:31;;;;;;;5.87;1.33;;;;;;;5.01;100.00;98464.06;5072287;28;20667;-83
2023/01/14 05:33:59;;;;;;;2.03;1.10;;;;;;;4.96;100.00;98468.63;5072354;28;20208;-82
2023/01/14 05:36:26;;;;;;;3.40;1.23;;;;;;;5.01;100.00;98466.69;5072136;28;20214;-83
2023/01/14 05:38:53;;;;;;;3.87;1.10;;;;;;;4.92;100.00;98467.06;5072607;28;20601;-82
2023/01/14 05:41:19;;;;;;;2.20;1.03;;;;;;;4.87;100.00;98463.78;5072067;28;20568;-83
2023/01/14 05:46:31;;;;;;;3.47;1.20;;;;;;;4.73;100.00;98437.34;5071897;28;20208;-82
2023/01/14 05:48:57;;;;;;;3.00;1.37;;;;;;;4.70;100.00;98441.84;5070970;28;20205;-82
2023/01/14 05:51:24;;;;;;;2.83;1.10;;;;;;;4.69;100.00;98443.59;5071705;28;20210;-82
2023/01/14 05:53:50;;;;;;;4.67;1.47;;;;;;;4.68;100.00;98444.53;5071681;28;20527;-82
2023/01/14 05:56:17;;;;;;;9.77;1.40;;;;;;;4.66;100.00;98438.50;5072011;28;20226;-82
2023/01/14 05:58:43;;;;;;;3.90;1.50;;;;;;;4.69;100.00;98440.97;5071289;28;20236;-82
2023/01/14 06:06:47;;;;;;;5.63;1.30;;;;;;;4.55;100.00;98430.22;5071503;28;20215;-83
2023/01/14 06:09:15;;;;;;;1.70;1.20;;;;;;;4.51;100.00;98427.78;5070937;28;20244;-82
2023/01/14 06:11:44;;;;;;;6.37;1.33;;;;;;;4.50;100.00;98424.31;5071420;28;20203;-82
2023/01/14 06:14:10;;;;;;;2.90;1.20;;;;;;;4.52;100.00;98427.72;5071343;28;20206;-82
2023/01/14 06:16:39;;;;;;;2.57;1.13;;;;;;;4.45;100.00;98415.81;5071375;28;20207;-82
2023/01/14 06:19:07;;;;;;;5.93;1.53;;;;;;;4.40;100.00;98419.53;5070170;28;20240;-82
2023/01/14 06:21:33;;;;;;;4.13;1.27;;;;;;;4.37;100.00;98424.88;5071425;28;20289;-82
2023/01/14 06:24:00;;;;;;;2.67;0.87;;;;;;;4.27;100.00;98434.03;5071503;28;20207;-82
2023/01/14 06:26:27;;;;;;;5.83;1.10;;;;;;;4.24;100.00;98434.13;5071152;28;20223;-82
2023/01/14 06:28:56;;;;;;;3.03;1.13;;;;;;;4.16;100.00;98431.81;5070685;28;20290;-82
2023/01/14 06:31:23;;;;;;;5.40;1.20;;;;;;;4.07;100.00;98436.53;5071026;28;20222;-82
2023/01/14 06:33:51;;;;;;;4.27;1.20;;;;;;;4.10;100.00;98434.66;5071234;28;20671;-83
2023/01/14 06:36:17;;;;;;;5.87;1.57;;;;;;;3.96;100.00;98438.72;5071254;28;20233;-82
2023/01/14 06:38:44;;;;;;;2.50;1.13;;;;;;;3.93;100.00;98426.63;5071203;28;20423;-81
2023/01/14 06:41:12;;;;;;;4.30;1.03;;;;;;;3.83;100.00;98438.34;5070727;28;20224;-82
2023/01/14 06:43:40;;;;;;;3.20;1.40;;;;;;;3.78;100.00;98429.81;5071016;28;20849;-82
2023/01/14 06:46:06;;;;;;;4.70;1.30;;;;;;;3.74;100.00;98428.22;5071410;28;20237;-82
2023/01/14 06:48:33;;;;;;;4.93;1.40;;;;;;;3.75;100.00;98424.72;5071325;28;20206;-83
2023/01/14 06:51:05;;;;;;;3.43;1.30;;;;;;;3.69;100.00;98424.94;5070644;28;20210;-82
2023/01/14 06:53:32;;;;;;;5.70;1.30;;;;;;;3.69;100.00;98419.72;5071380;28;20204;-83
2023/01/14 06:56:01;;;;;;;5.93;2.13;;;;;;;3.76;100.00;98413.34;5070876;28;20238;-82
2023/01/14 06:58:28;;;;;;;4.80;1.57;;;;;;;3.84;100.00;98419.13;5070821;28;20295;-82
2023/01/14 07:00:55;;;;;;;3.87;1.60;;;;;;;3.97;100.00;98414.28;5070506;28;20567;-82
2023/01/14 07:03:22;;;;;;;5.50;1.80;;;;;;;4.10;100.00;98411.13;5071015;28;20296;-83
2023/01/14 07:05:48;;;;;;;5.97;1.87;;;;;;;4.30;100.00;98411.19;5070955;28;20249;-82
2023/01/14 07:08:16;;;;;;;3.90;1.43;;;;;;;4.40;100.00;98404.66;5070962;28;20213;-82
2023/01/14 07:10:43;;;;;;;6.00;1.60;;;;;;;4.57;100.00;98397.00;5070196;28;20272;-82
2023/01/14 07:13:09;;;;;;;5.60;1.50;;;;;;;4.67;100.00;98393.09;5070854;28;20204;-82
2023/01/14 07:15:39;;;;;;;2.37;1.10;;;;;;;4.73;100.00;98386.72;5070829;28;20229;-82
2023/01/14 07:18:05;;;;;;;4.20;1.20;;;;;;;4.84;100.00;98379.28;5070835;28;20223;-82
2023/01/14 07:20:32;;;;;;;3.13;1.43;;;;;;;4.83;100.00;98383.66;5070324;28;20242;-82
2023/01/14 07:23:01;;;;;;;5.33;1.47;;;;;;;4.89;100.00;98372.91;5071130;28;20223;-82
2023/01/14 07:25:29;;;;;;;5.13;1.77;;;;;;;4.88;100.00;98362.53;5070948;28;20252;-82
2023/01/14 07:27:55;;;;;;;1.83;1.27;;;;;;;4.87;100.00;98361.66;5070964;28;20207;-82
2023/01/14 07:30:22;;;;;;;2.97;1.30;;;;;;;4.93;100.00;98360.53;5071996;28;20213;-82
2023/01/14 07:32:48;;;;;;;5.43;1.50;;;;;;;4.94;100.00;98352.63;5074664;28;20694;-82
2023/01/14 07:35:15;;;;;;;5.33;1.60;;;;;;;5.00;100.00;98352.34;5074495;28;20257;-82
2023/01/14 07:37:42;;;;;;;4.20;1.50;;;;;;;4.98;100.00;98355.97;5074547;28;20216;-82
2023/01/14 07:40:09;;;;;;;4.70;1.47;;;;;;;4.93;100.00;98344.81;5073270;28;20256;-82
2023/01/14 07:42:37;;;;;;;7.53;1.90;;;;;;;4.89;100.00;98338.03;5074499;28;20207;-82
2023/01/14 07:45:05;;;;;;;3.83;1.43;;;;;;;4.84;100.00;98337.38;5074266;28;20241;-83
2023/01/14 07:47:31;;;;;;;5.57;2.23;;;;;;;4.89;100.00;98324.94;5074343;28;20291;-82
2023/01/14 07:49:58;;;;;;;4.27;1.57;;;;;;;4.94;100.00;98313.34;5073558;28;20205;-83
2023/01/14 07:52:24;;;;;;;8.13;1.80;;;;;;;5.01;100.00;98313.94;5074216;28;20673;-83
2023/01/14 07:54:50;;;;;;;4.23;1.70;;;;;;;5.25;100.00;98304.97;5074324;28;20592;-82
2023/01/14 07:57:18;;;;;;;5.00;1.70;;;;;;;5.20;100.00;98309.56;5074332;28;20237;-83
2023/01/14 07:59:46;;;;;;;4.00;1.70;;;;;;;5.24;100.00;98303.25;5073528;28;20232;-82
2023/01/14 08:02:13;;;;;;;6.13;1.70;;;;;;;5.28;100.00;98303.06;5074190;28;20218;-82
2023/01/14 08:04:39;;;;;;;5.70;2.53;;;;;;;5.34;100.00;98301.94;5073839;28;20237;-82
2023/01/14 08:07:06;;;;;;;6.10;2.00;;;;;;;5.44;100.00;98292.72;5073911;28;20213;-83
2023/01/14 08:09:33;;;;;;;5.30;1.60;;;;;;;5.45;100.00;98291.81;5073315;28;20205;-82
2023/01/14 08:11:59;;;;;;;5.10;2.10;;;;;;;5.55;100.00;98279.97;5073949;28;20220;-82
2023/01/14 08:14:26;;;;;;;5.83;1.70;;;;;;;5.56;100.00;98279.88;5074947;28;20242;-83
2023/01/14 08:16:54;;;;;;;4.87;2.07;;;;;;;5.61;100.00;98283.16;5073738;28;20221;-83
2023/01/14 08:19:20;;;;;;;6.03;1.77;;;;;;;5.65;100.00;98276.84;5072749;28;20235;-82
2023/01/14 08:21:46;;;;;;;3.47;2.03;;;;;;;5.75;100.00;98277.25;5073388;28;20236;-77
2023/01/14 08:24:13;;;;;;;4.67;1.30;;;;;;;5.80;100.00;98270.06;5073260;28;20216;-76
2023/01/14 08:26:40;;;;;;;6.17;2.03;;;;;;;5.85;100.00;98271.53;5073726;28;20260;-76
2023/01/14 08:29:07;;;;;;;4.33;1.87;;;;;;;5.91;100.00;98263.34;5073249;28;20553;-82
2023/01/14 08:31:33;;;;;;;3.83;1.30;;;;;;;5.99;100.00;98261.19;5073974;28;20211;-82
2023/01/14 08:34:01;;;;;;;10.17;2.10;;;;;;;6.07;100.00;98259.06;5072777;28;20320;-82
2023/01/14 08:36:28;;;;;;;6.50;1.97;;;;;;;6.15;100.00;98262.16;5073460;28;20218;-81
2023/01/14 08:38:54;;;;;;;6.53;1.77;;;;;;;6.22;100.00;98266.16;5072755;28;20214;-82
2023/01/14 08:41:21;;;;;;;5.23;1.60;;;;;;;6.29;100.00;98267.56;5072512;28;20219;-82
2023/01/14 08:43:49;;;;;;;3.07;1.57;;;;;;;6.33;100.00;98261.25;5073220;28;20210;-83
2023/01/14 08:46:16;;;;;;;3.73;1.70;;;;;;;6.41;100.00;98264.31;5072885;28;20238;-82
2023/01/14 08:48:42;;;;;;;3.47;1.43;;;;;;;6.47;100.00;98252.69;5072795;28;20211;-82
2023/01/14 08:51:13;;;;;;;4.47;1.30;;;;;;;6.50;100.00;98253.38;5072109;28;20673;-83
2023/01/14 08:53:40;;;;;;;5.60;1.60;;;;;;;6.50;100.00;98244.63;5072881;28;20215;-85
2023/01/14 08:56:10;;;;;;;5.70;1.67;;;;;;;6.56;100.00;98233.81;5073088;28;20288;-83
2023/01/14 08:58:36;;;;;;;5.50;1.50;;;;;;;6.56;100.00;98237.31;5073252;28;20212;-83
2023/01/14 09:01:05;;;;;;;6.97;1.50;;;;;;;6.60;100.00;98228.31;5072108;28;20318;-83
2023/01/14 09:03:35;;;;;;;3.60;1.60;;;;;;;6.65;100.00;98226.31;5072470;28;20222;-82
2023/01/14 09:06:03;;;;;;;4.63;1.80;;;;;;;6.74;100.00;98231.09;5072497;28;20233;-83
2023/01/14 09:19:31;;;;;;;5.37;1.67;;;;;;;7.05;100.00;98225.03;5071532;28;20293;-82
2023/01/14 09:21:57;;;;;;;4.00;1.90;;;;;;;7.05;100.00;98217.16;5072062;28;20207;-83
2023/01/14 09:24:25;;;;;;;5.80;2.17;;;;;;;7.14;100.00;98214.06;5072289;28;20229;-83
2023/01/14 09:26:52;;;;;;;7.50;1.50;;;;;;;7.18;100.00;98192.78;5072423;28;20203;-83
2023/01/14 09:29:18;;;;;;;3.40;1.10;;;;;;;7.15;100.00;98195.56;5071874;28;20588;-84
2023/01/14 09:31:45;;;;;;;4.67;1.20;;;;;;;7.13;100.00;98215.81;5070776;28;20211;-78
2023/01/14 09:34:12;;;;;;;4.20;1.60;;;;;;;7.17;100.00;98219.13;5068508;28;20210;-84
2023/01/14 09:36:38;;;;;;;5.03;1.60;;;;;;;7.17;100.00;98220.00;5071988;28;20324;-77
2023/01/14 09:39:05;;;;;;;6.80;1.83;;;;;;;7.22;100.00;98217.97;5071412;28;20231;-83
2023/01/14 09:41:35;;;;;;;5.50;1.50;;;;;;;7.27;100.00;98215.91;5072092;28;20230;-80
2023/01/14 09:44:05;;;;;;;2.90;1.50;;;;;;;7.32;100.00;98201.59;5071780;28;20211;-83
2023/01/14 09:46:33;;;;;;;5.13;1.40;;;;;;;7.36;100.00;98199.66;5072117;28;20204;-82
2023/01/14 09:49:02;;;;;;;5.77;1.53;;;;;;;7.45;100.00;98184.22;5071222;28;20221;-84
2023/01/14 09:52:06;;;;;;;5.27;1.30;;;;;;;7.51;100.00;98196.16;5072098;28;20204;-86
2023/01/14 09:54:41;;;;;;;4.87;1.53;;;;;;;7.59;100.00;98192.16;5071804;28;20238;-84
2023/01/14 09:57:15;;;;;;;2.73;1.50;;;;;;;7.67;100.00;98189.09;5072790;28;20239;-83
2023/01/14 09:59:52;;;;;;;4.80;1.73;;;;;;;7.69;100.00;98192.50;5071995;28;20770;-84
2023/01/14 10:02:23;;;;;;;3.30;1.50;;;;;;;7.73;100.00;98183.50;5073165;28;20246;-83
2023/01/14 10:05:03;;;;;;;10.43;5.80;;;;;;;7.83;100.00;98172.34;5072682;28;20612;-82
2023/01/14 10:07:30;;;;;;;4.73;2.13;;;;;;;7.90;98.91;98171.06;5072780;28;20694;-84
2023/01/14 10:09:59;;;;;;;5.33;1.67;;;;;;;7.99;98.18;98164.41;5071934;28;20213;-84
2023/01/14 10:12:32;;;;;;;6.50;1.80;;;;;;;8.01;98.34;98163.41;5072705;28;20214;-84
2023/01/14 10:15:10;;;;;;;3.63;1.40;;;;;;;8.03;98.65;98161.50;5072539;28;20228;-85
2023/01/14 10:17:40;;;;;;;7.17;1.80;;;;;;;8.09;98.62;98158.50;5072611;28;20211;-83
2023/01/14 10:20:15;;;;;;;10.87;2.50;;;;;;;8.18;98.06;98147.47;5071769;28;20230;-83
2023/01/14 10:22:45;;;;;;;6.70;1.77;;;;;;;8.23;97.55;98137.53;5072494;28;20199;-83
2023/01/14 10:25:17;;;;;;;2.67;1.70;;;;;;;8.29;97.75;98131.03;5086343;22;20731;-77
2023/01/14 10:27:49;;;;;;;3.93;1.53;;;;;;;8.37;98.10;98113.00;5071406;28;20210;-78
2023/01/14 10:30:21;;;;;;;6.43;1.80;;;;;;;8.41;99.30;98088.16;5070705;28;20207;-77
2023/01/14 10:32:51;;;;;;;3.07;1.70;;;;;;;8.53;100.00;98071.63;5071047;28;20312;-79
2023/01/14 10:35:32;;;;;;;4.20;1.80;;;;;;;8.58;98.98;98064.28;5071409;28;20231;-82
2023/01/14 10:37:59;;;;;;;4.43;1.70;;;;;;;8.50;99.06;98069.19;5071530;28;20205;-80
2023/01/14 10:40:28;;;;;;;3.47;1.83;;;;;;;8.37;99.60;98078.75;5070393;28;20233;-79
2023/01/14 10:42:58;;;;;;;2.87;1.40;;;;;;;8.34;100.00;98086.84;5071531;28;20211;-82
2023/01/14 10:45:25;;;;;;;3.27;1.60;;;;;;;8.37;99.93;98079.63;5071019;28;20228;-79
2023/01/14 10:47:56;;;;;;;5.17;1.50;;;;;;;8.43;99.31;98071.34;5071368;28;20216;-81
2023/01/14 10:50:24;;;;;;;3.77;1.47;;;;;;;8.45;98.59;98055.44;5070720;28;20189;-81
2023/01/14 10:52:52;;;;;;;3.40;1.30;;;;;;;8.51;98.60;98047.16;5071179;28;20206;-81
2023/01/14 10:55:22;;;;;;;3.30;1.37;;;;;;;8.50;98.08;98040.22;5071027;28;20725;-80
2023/01/14 10:58:00;;;;;;;4.70;1.70;;;;;;;8.57;97.31;98034.44;5070488;28;20441;-80
2023/01/14 11:00:35;;;;;;;6.18;2.00;;;;;;;8.64;96.33;98021.75;5065982;28;20461;-80
2023/01/14 11:03:03;;;;;;;5.40;1.30;;;;;;;8.65;95.97;98012.91;5070789;28;20694;-80
2023/01/14 11:05:33;;;;;;;4.70;1.50;;;;;;;8.60;95.57;98007.06;5085366;28;20239;-80
2023/01/14 11:08:16;;;;;;;7.60;1.40;;;;;;;8.66;95.90;97998.78;5095353;28;20213;-80
2023/01/14 11:10:43;;;;;;;4.07;1.80;;;;;;;8.59;94.50;97977.25;5093981;28;20211;-80
2023/01/14 11:13:23;;;;;;;3.33;1.43;;;;;;;8.54;94.51;97967.94;5095378;28;20214;-79
2023/01/14 11:15:51;;;;;;;6.20;1.77;;;;;;;8.58;94.90;97966.81;5094811;28;20227;-80
2023/01/14 11:18:27;;;;;;;4.73;1.50;;;;;;;8.62;94.80;97965.69;5094969;28;20694;-81
2023/01/14 11:21:00;;;;;;;3.93;1.30;;;;;;;8.68;94.82;97962.63;5093647;28;20227;-80
2023/01/14 11:23:29;;;;;;;5.37;1.60;;;;;;;8.75;92.96;97948.97;5095153;28;20588;-80
2023/01/14 11:25:56;;;;;;;2.50;1.40;;;;;;;8.74;93.08;97954.34;5079417;28;20245;-80
2023/01/14 11:28:23;;;;;;;4.10;1.40;;;;;;;8.71;93.55;97955.41;5074600;28;20212;-80
2023/01/14 11:30:54;;;;;;;2.57;1.30;;;;;;;8.72;93.36;97950.97;5073544;28;20572;-81
2023/01/14 11:33:23;;;;;;;3.23;1.40;;;;;;;8.73;93.81;97952.66;5074412;28;20203;-76
2023/01/14 11:35:52;;;;;;;1.97;1.10;;;;;;;8.72;94.46;97949.19;5074416;28;20578;-77
2023/01/14 11:38:21;;;;;;;3.63;1.13;;;;;;;8.86;94.20;97943.84;5074091;28;20256;-76
2023/01/14 11:43:52;;;;;;;1.40;0.97;;;;;;;8.99;93.56;97925.47;5074904;28;20209;-80
2023/01/14 11:46:20;;;;;;;3.67;1.40;;;;;;;8.99;93.34;97943.91;5074154;28;20232;-78
2023/01/14 11:48:59;;;;;;;4.27;1.37;;;;;;;9.08;93.39;97935.38;5073699;28;20208;-82
2023/01/14 11:51:27;;;;;;;2.33;1.40;;;;;;;9.06;93.15;97932.84;5073500;28;20209;-81
2023/01/14 11:53:55;;;;;;;2.03;1.07;;;;;;;9.12;91.59;97931.59;5072316;28;20212;-82
2023/01/14 11:56:28;;;;;;;2.27;1.37;;;;;;;9.13;92.01;97926.22;5071458;28;20242;-81
2023/01/14 11:58:55;;;;;;;3.30;1.20;;;;;;;9.14;92.30;97927.06;5070390;28;20233;-81
2023/01/14 12:01:27;;;;;;;2.67;1.27;;;;;;;9.17;92.39;97914.53;5071875;28;20235;-82
2023/01/14 12:04:02;;;;;;;2.80;1.40;;;;;;;9.20;91.78;97910.84;5071688;28;20464;-81
2023/01/14 12:06:32;;;;;;;3.78;1.60;;;;;;;9.29;91.57;97899.66;5071281;28;20857;-81
2023/01/14 12:09:02;;;;;;;2.73;1.40;;;;;;;9.28;91.04;97898.81;5073332;28;20242;-80
2023/01/14 12:11:36;;;;;;;2.97;0.90;;;;;;;9.34;89.68;97887.00;5073872;28;20212;-81